createdAt,value
2023-02-17T00:04:20.861Z,100706.56
2023-02-17T00:09:22.480Z,100702.22
2023-02-17T00:14:24.049Z,100704.16
2023-02-17T00:19:26.038Z,100710.06
2023-02-17T00:24:30.063Z,100707.31
2023-02-17T00:29:32.425Z,100707.03
2023-02-17T00:34:34.071Z,100696.53
2023-02-17T00:39:35.643Z,100689.75
2023-02-17T00:44:37.215Z,100689.28
2023-02-17T00:49:38.861Z,100692.78
2023-02-17T00:54:41.890Z,100690.72
2023-02-17T00:59:44.669Z,100687.81
2023-02-17T01:04:46.258Z,100678.84
2023-02-17T01:09:49.861Z,100679.59
2023-02-17T01:14:51.412Z,100682.25
2023-02-17T01:19:52.979Z,100671.94
2023-02-17T01:24:54.608Z,100670.16
2023-02-17T01:29:56.268Z,100666.09
2023-02-17T01:34:57.832Z,100659.44
2023-02-17T01:39:59.494Z,100646.13
2023-02-17T01:45:19.571Z,100658.72
2023-02-17T01:50:24.254Z,100656.53
2023-02-17T01:55:26.355Z,100646.22
2023-02-17T02:00:28.888Z,100648.06
2023-02-17T02:05:30.617Z,100639.44
2023-02-17T02:10:32.203Z,100616.56
2023-02-17T02:15:41.038Z,100607.09
2023-02-17T02:21:10.186Z,100592.81
2023-02-17T02:26:37.782Z,100580.81
2023-02-17T02:31:56.863Z,100576.47
2023-02-17T02:37:05.777Z,100564.25
2023-02-17T02:42:10.111Z,100558.91
2023-02-17T02:47:42.862Z,100545.22
2023-02-17T02:52:50.640Z,100535.44
2023-02-17T02:57:57.566Z,100518.47
2023-02-17T03:03:15.815Z,100534.25
2023-02-17T03:08:26.617Z,100530.00
2023-02-17T03:13:28.289Z,100530.13
2023-02-17T03:18:32.736Z,100526.03
2023-02-17T03:23:34.650Z,100508.06
2023-02-17T03:28:36.304Z,100502.53
2023-02-17T03:33:38.008Z,100507.97
2023-02-17T03:38:39.602Z,100496.00
2023-02-17T03:43:41.206Z,100493.25
2023-02-17T03:48:43.172Z,100501.09
2023-02-17T03:53:45.020Z,100488.75
2023-02-17T03:58:46.717Z,100494.97
2023-02-17T04:03:48.389Z,100494.53
2023-02-17T04:08:49.990Z,100492.69
2023-02-17T04:13:52.745Z,100495.78
2023-02-17T04:18:54.308Z,100493.13
2023-02-17T04:23:55.950Z,100501.44
2023-02-17T04:28:57.593Z,100502.69
2023-02-17T04:33:59.173Z,100489.16
2023-02-17T04:39:00.757Z,100488.47
2023-02-17T04:44:02.314Z,100479.31
2023-02-17T04:49:03.855Z,100477.16
2023-02-17T04:54:05.439Z,100467.94
2023-02-17T04:59:06.983Z,100461.72
2023-02-17T05:04:08.542Z,100460.06
2023-02-17T05:09:10.131Z,100455.69
2023-02-17T05:14:11.796Z,100454.69
2023-02-17T05:19:13.765Z,100456.81
2023-02-17T05:24:15.360Z,100459.06
2023-02-17T05:29:17.016Z,100453.00
2023-02-17T05:34:18.581Z,100448.09
2023-02-17T05:39:20.155Z,100441.25
2023-02-17T05:44:21.684Z,100435.88
2023-02-17T05:49:23.236Z,100432.81
2023-02-17T05:54:24.879Z,100431.13
2023-02-17T05:59:26.604Z,100420.88
2023-02-17T06:04:28.225Z,100418.31
2023-02-17T06:09:29.904Z,100427.47
2023-02-17T06:14:31.475Z,100419.03
2023-02-17T06:19:33.156Z,100431.13
2023-02-17T06:24:34.707Z,100425.53
2023-02-17T06:29:36.354Z,100428.34
2023-02-17T06:34:37.882Z,100431.44
2023-02-17T06:39:39.430Z,100431.97
2023-02-17T06:44:40.987Z,100427.47
2023-02-17T06:49:42.531Z,100422.84
2023-02-17T06:54:44.077Z,100421.59
2023-02-17T06:59:45.626Z,100410.03
2023-02-17T07:04:47.211Z,100415.38
2023-02-17T07:09:48.821Z,100424.69
2023-02-17T07:14:50.445Z,100426.34
2023-02-17T07:19:52.269Z,100424.38
2023-02-17T07:24:53.869Z,100411.41
2023-02-17T07:29:55.747Z,100422.53
2023-02-17T07:34:57.359Z,100413.97
2023-02-17T07:39:58.922Z,100411.16
2023-02-17T07:45:00.521Z,100409.88
2023-02-17T07:50:02.049Z,100404.09
2023-02-17T07:55:04.011Z,100400.13
2023-02-17T08:00:06.616Z,100377.91
2023-02-17T08:05:14.342Z,100388.44
2023-02-17T08:10:34.500Z,100389.75
2023-02-17T08:15:36.191Z,100405.47
2023-02-17T08:20:37.737Z,100416.47
2023-02-17T08:25:39.351Z,100414.19
2023-02-17T08:30:41.117Z,100418.03
2023-02-17T08:35:43.793Z,100420.69
2023-02-17T08:40:45.501Z,100424.91
2023-02-17T08:45:47.163Z,100424.06
2023-02-17T08:50:48.757Z,100412.22
2023-02-17T08:55:50.380Z,100408.84
2023-02-17T09:00:52.329Z,100407.16
2023-02-17T09:05:55.477Z,100401.50
2023-02-17T09:10:57.558Z,100387.97
2023-02-17T09:15:59.197Z,100390.22
2023-02-17T09:21:07.103Z,100380.31
2023-02-17T09:26:11.288Z,100374.59
2023-02-17T09:31:16.078Z,100377.13
2023-02-17T09:36:20.869Z,100384.41
2023-02-17T09:41:37.997Z,100375.44
2023-02-17T09:47:00.834Z,100357.50
2023-02-17T09:52:09.712Z,100352.41
2023-02-17T09:57:15.862Z,100343.69
2023-02-17T10:02:50.481Z,100331.13
2023-02-17T10:07:57.342Z,100321.72
2023-02-17T10:13:00.752Z,100319.56
2023-02-17T10:18:11.038Z,100327.84
2023-02-17T10:23:20.697Z,100320.78
2023-02-17T10:28:41.625Z,100322.69
2023-02-17T10:34:19.793Z,100303.69
2023-02-17T10:39:38.190Z,100269.72
2023-02-17T10:44:39.864Z,100265.25
2023-02-17T10:49:45.770Z,100267.41
2023-02-17T10:54:53.008Z,100249.06
2023-02-17T10:59:54.560Z,100246.97
2023-02-17T11:04:56.162Z,100234.72
2023-02-17T11:10:01.232Z,100226.84
2023-02-17T11:15:05.560Z,100216.72
2023-02-17T11:20:14.353Z,100210.53
2023-02-17T11:25:23.925Z,100194.44
2023-02-17T11:30:27.420Z,100174.69
2023-02-17T11:35:38.203Z,100161.97
2023-02-17T11:40:39.815Z,100145.88
2023-02-17T11:45:52.777Z,100150.06
2023-02-17T11:51:03.515Z,100156.78
2023-02-17T11:56:08.127Z,100148.25
2023-02-17T12:01:28.077Z,100120.53
2023-02-17T12:06:33.274Z,100115.69
2023-02-17T12:11:40.711Z,100111.34
2023-02-17T12:17:20.611Z,100102.44
2023-02-17T12:22:30.713Z,100084.19
2023-02-17T12:27:58.345Z,100094.41
2023-02-17T12:33:08.991Z,100080.19
2023-02-17T12:38:17.659Z,100062.25
2023-02-17T12:43:41.375Z,100054.03
2023-02-17T12:48:47.899Z,100051.53
2023-02-17T12:54:13.033Z,100058.91
2023-02-17T12:59:18.080Z,100043.31
2023-02-17T13:04:23.349Z,100043.78
2023-02-17T13:09:34.706Z,100022.13
2023-02-17T13:14:42.277Z,100020.47
2023-02-17T13:19:44.134Z,100016.59
2023-02-17T13:24:54.051Z,100022.78
2023-02-17T13:30:06.913Z,100006.16
2023-02-17T13:35:28.428Z,99994.38
2023-02-17T13:40:30.126Z,99997.41
2023-02-17T13:45:35.698Z,99993.22
2023-02-17T13:50:44.175Z,99989.19
2023-02-17T13:55:45.801Z,99975.78
2023-02-17T14:00:47.419Z,99985.16
2023-02-17T14:05:50.963Z,99962.66
2023-02-17T14:10:52.717Z,99968.34
2023-02-17T14:15:59.368Z,99954.75
2023-02-17T14:21:24.808Z,99936.41
2023-02-17T14:26:43.523Z,99949.69
2023-02-17T14:31:49.274Z,99939.06
2023-02-17T14:36:51.138Z,99924.97
2023-02-17T14:41:52.739Z,99917.56
2023-02-17T14:46:54.297Z,99913.88
2023-02-17T14:51:56.661Z,99908.84
2023-02-17T14:57:08.607Z,99892.38
2023-02-17T15:02:15.621Z,99884.00
2023-02-17T15:07:18.263Z,99884.00
2023-02-17T15:12:21.824Z,99898.09
2023-02-17T15:17:23.417Z,99903.28
2023-02-17T15:22:25.420Z,99921.75
2023-02-17T15:27:27.026Z,99935.72
2023-02-17T15:32:29.718Z,99960.59
2023-02-17T15:37:31.356Z,99958.59
2023-02-17T15:42:32.943Z,99947.47
2023-02-17T15:47:34.489Z,99947.84
2023-02-17T15:52:36.155Z,99954.91
2023-02-17T15:57:40.861Z,99944.53
2023-02-17T16:02:42.570Z,99948.22
2023-02-17T16:07:44.410Z,99951.38
2023-02-17T16:12:47.226Z,99942.84
2023-02-17T16:17:50.164Z,99943.84
2023-02-17T16:22:52.095Z,99937.00
2023-02-17T16:27:53.873Z,99918.34
2023-02-17T16:32:55.495Z,99924.06
2023-02-17T16:37:58.400Z,99922.03
2023-02-17T16:43:00.180Z,99910.13
2023-02-17T16:48:01.988Z,99918.34
2023-02-17T16:53:05.633Z,99923.94
2023-02-17T16:58:14.474Z,99914.22
2023-02-17T17:03:16.138Z,99917.69
2023-02-17T17:08:20.631Z,99908.66
2023-02-17T17:13:23.219Z,99910.47
2023-02-17T17:18:24.846Z,99914.66
2023-02-17T17:23:26.410Z,99921.34
2023-02-17T17:28:28.047Z,99913.13
2023-02-17T17:33:29.596Z,99926.69
2023-02-17T17:38:31.283Z,99939.28
2023-02-17T17:43:32.881Z,99950.53
2023-02-17T17:48:34.433Z,99951.19
2023-02-17T17:53:36.007Z,99957.72
2023-02-17T17:58:38.956Z,99975.50
2023-02-17T18:03:41.555Z,99981.38
2023-02-17T18:08:45.169Z,99989.44
2023-02-17T18:13:48.806Z,99989.94
2023-02-17T18:18:50.784Z,100017.00
2023-02-17T18:23:52.393Z,100043.72
2023-02-17T18:28:53.974Z,100041.91
2023-02-17T18:33:55.559Z,100048.66
2023-02-17T18:38:57.123Z,100072.34
2023-02-17T18:44:00.045Z,100094.66
2023-02-17T18:49:01.619Z,100083.41
2023-02-17T18:54:04.012Z,100068.44
2023-02-17T18:59:05.703Z,100058.75
2023-02-17T19:04:09.649Z,100070.63
2023-02-17T19:09:11.302Z,100080.91
2023-02-17T19:14:12.897Z,100076.69
2023-02-17T19:19:14.493Z,100091.28
2023-02-17T19:24:16.952Z,100086.91
2023-02-17T19:29:18.607Z,100087.59
2023-02-17T19:34:20.269Z,100090.13
2023-02-17T19:39:21.965Z,100097.81
2023-02-17T19:44:23.510Z,100091.78
2023-02-17T19:49:25.070Z,100102.53
2023-02-17T19:54:26.865Z,100123.31
2023-02-17T19:59:28.474Z,100112.78
2023-02-17T20:04:30.115Z,100107.91
2023-02-17T20:09:32.123Z,100096.31
2023-02-17T20:14:33.740Z,100107.75
2023-02-17T20:19:37.848Z,100118.47
2023-02-17T20:24:40.765Z,100103.53
2023-02-17T20:29:42.445Z,100130.22
2023-02-17T20:34:44.093Z,100133.22
2023-02-17T20:39:45.694Z,100137.78
2023-02-17T20:44:50.208Z,100135.56
2023-02-17T20:49:51.830Z,100131.72
2023-02-17T20:54:53.376Z,100130.88
2023-02-17T20:59:55.053Z,100146.63
2023-02-17T21:04:56.644Z,100148.91
2023-02-17T21:09:58.224Z,100158.31
2023-02-17T21:14:59.811Z,100159.78
2023-02-17T21:20:01.589Z,100171.84
2023-02-17T21:25:04.038Z,100180.63
2023-02-17T21:30:07.355Z,100186.19
2023-02-17T21:35:10.409Z,100192.53
2023-02-17T21:40:13.833Z,100199.53
2023-02-17T21:45:15.508Z,100199.53
2023-02-17T21:50:18.418Z,100206.94
2023-02-17T21:55:20.060Z,100232.06
2023-02-17T22:00:21.747Z,100249.53
2023-02-17T22:05:23.570Z,100275.38
2023-02-17T22:10:25.150Z,100298.69
2023-02-17T22:15:26.814Z,100316.47
2023-02-17T22:20:28.988Z,100308.78
2023-02-17T22:25:31.180Z,100322.50
2023-02-17T22:30:32.830Z,100325.75
2023-02-17T22:35:34.423Z,100330.28
2023-02-17T22:40:39.899Z,100337.78
2023-02-17T22:45:41.574Z,100328.34
2023-02-17T22:50:43.162Z,100340.09
2023-02-17T22:55:55.259Z,100347.84
2023-02-17T23:01:02.964Z,100353.25
2023-02-17T23:06:07.711Z,100364.75
2023-02-17T23:11:11.920Z,100361.06
2023-02-17T23:16:21.421Z,100384.28
2023-02-17T23:21:23.126Z,100375.38
2023-02-17T23:26:24.747Z,100381.28
2023-02-17T23:31:26.396Z,100383.63
2023-02-17T23:36:28.097Z,100384.94
2023-02-17T23:41:29.704Z,100399.88
2023-02-17T23:46:31.306Z,100399.25
2023-02-17T23:51:33.342Z,100397.19
2023-02-17T23:56:35.832Z,100403.41
